createdAt,value
2022-09-18T00:01:33.511Z,7.13
2022-09-18T00:04:35.206Z,7.22
2022-09-18T00:07:36.819Z,7.22
2022-09-18T00:10:41.484Z,7.25
2022-09-18T00:13:43.416Z,7.30
2022-09-18T00:16:46.648Z,7.24
2022-09-18T00:19:48.276Z,7.20
2022-09-18T00:22:49.904Z,7.20
2022-09-18T00:25:51.509Z,7.20
2022-09-18T00:28:53.398Z,7.13
2022-09-18T00:31:56.390Z,7.15
2022-09-18T00:34:58.079Z,7.12
2022-09-18T00:37:59.689Z,7.19
2022-09-18T00:41:02.317Z,7.14
2022-09-18T00:44:37.097Z,7.17
2022-09-18T00:47:42.008Z,7.04
2022-09-18T00:50:43.702Z,7.10
2022-09-18T00:53:48.831Z,7.07
2022-09-18T00:56:52.294Z,7.07
2022-09-18T00:59:54.451Z,7.08
2022-09-18T01:02:58.011Z,7.06
2022-09-18T01:06:05.687Z,7.10
2022-09-18T01:09:12.445Z,7.08
2022-09-18T01:12:18.397Z,7.08
2022-09-18T01:15:22.522Z,7.14
2022-09-18T01:18:29.654Z,7.07
2022-09-18T01:21:33.726Z,7.10
2022-09-18T01:24:45.746Z,7.09
2022-09-18T01:27:55.066Z,7.07
2022-09-18T01:30:59.255Z,7.04
2022-09-18T01:34:03.289Z,7.08
2022-09-18T01:37:09.561Z,7.09
2022-09-18T01:40:16.030Z,7.09
2022-09-18T01:43:20.716Z,7.12
2022-09-18T01:46:23.378Z,7.14
2022-09-18T01:49:27.164Z,7.10
2022-09-18T01:52:31.312Z,7.11
2022-09-18T01:55:33.792Z,7.17
2022-09-18T01:58:36.996Z,7.14
2022-09-18T02:01:40.676Z,7.13
2022-09-18T02:04:44.647Z,7.04
2022-09-18T02:07:49.205Z,7.02
2022-09-18T02:10:54.331Z,7.07
2022-09-18T02:14:00.827Z,7.09
2022-09-18T02:17:05.966Z,6.99
2022-09-18T02:20:10.421Z,7.05
2022-09-18T02:23:12.234Z,6.96
2022-09-18T02:26:14.606Z,6.90
2022-09-18T02:29:18.537Z,6.90
2022-09-18T02:32:20.144Z,6.95
2022-09-18T02:35:23.326Z,6.98
2022-09-18T02:38:29.025Z,6.95
2022-09-18T02:41:34.396Z,6.96
2022-09-18T02:44:42.348Z,6.93
2022-09-18T02:47:50.492Z,6.91
2022-09-18T02:50:59.268Z,6.88
2022-09-18T02:54:04.141Z,6.88
2022-09-18T02:57:08.527Z,6.91
2022-09-18T03:00:12.350Z,6.83
2022-09-18T03:03:15.172Z,6.81
2022-09-18T03:06:16.817Z,6.78
2022-09-18T03:09:18.599Z,6.84
2022-09-18T03:12:20.479Z,6.72
2022-09-18T03:15:23.469Z,6.76
2022-09-18T03:18:25.135Z,6.74
2022-09-18T03:21:26.755Z,6.75
2022-09-18T03:24:28.333Z,6.80
2022-09-18T03:27:29.953Z,6.83
2022-09-18T03:30:33.741Z,6.84
2022-09-18T03:33:35.683Z,6.85
2022-09-18T03:36:37.292Z,6.83
2022-09-18T03:39:38.862Z,6.88
2022-09-18T03:42:42.517Z,6.90
2022-09-18T03:45:45.520Z,6.92
2022-09-18T03:48:47.121Z,6.92
2022-09-18T03:51:48.800Z,6.94
2022-09-18T03:54:50.408Z,6.89
2022-09-18T03:57:52.036Z,6.89
2022-09-18T04:00:55.026Z,6.96
2022-09-18T04:03:56.713Z,7.00
2022-09-18T04:06:58.345Z,7.05
2022-09-18T04:09:59.998Z,7.02
2022-09-18T04:13:01.646Z,7.06
2022-09-18T04:16:04.824Z,7.07
2022-09-18T04:19:06.561Z,7.04
2022-09-18T04:22:08.197Z,6.97
2022-09-18T04:25:10.056Z,6.93
2022-09-18T04:28:11.693Z,7.09
2022-09-18T04:31:15.069Z,6.99
2022-09-18T04:34:16.705Z,7.01
2022-09-18T04:37:18.358Z,7.08
2022-09-18T04:40:20.006Z,7.12
2022-09-18T04:43:21.807Z,7.04
2022-09-18T04:46:24.875Z,7.08
2022-09-18T04:49:26.505Z,7.00
2022-09-18T04:52:28.140Z,7.06
2022-09-18T04:55:29.723Z,7.10
2022-09-18T04:58:31.337Z,7.08
2022-09-18T05:01:34.978Z,6.89
2022-09-18T05:04:36.647Z,6.95
2022-09-18T05:07:38.221Z,6.85
2022-09-18T05:10:39.945Z,6.75
2022-09-18T05:13:41.556Z,6.81
2022-09-18T05:16:44.562Z,6.72
2022-09-18T05:19:46.140Z,6.77
2022-09-18T05:22:47.794Z,6.84
2022-09-18T05:25:49.377Z,6.70
2022-09-18T05:28:50.996Z,6.67
2022-09-18T05:31:54.040Z,6.73
2022-09-18T05:34:55.694Z,6.83
2022-09-18T05:37:57.334Z,6.78
2022-09-18T05:40:59.845Z,6.72
2022-09-18T05:44:01.778Z,6.83
2022-09-18T05:47:05.146Z,6.88
2022-09-18T05:50:07.699Z,6.96
2022-09-18T05:53:10.846Z,6.98
2022-09-18T05:56:12.528Z,7.11
2022-09-18T05:59:14.226Z,7.06
2022-09-18T06:02:17.278Z,7.08
2022-09-18T06:05:18.928Z,7.03
2022-09-18T06:08:20.986Z,7.09
2022-09-18T06:11:22.628Z,7.14
2022-09-18T06:14:24.509Z,7.23
2022-09-18T06:17:27.469Z,7.18
2022-09-18T06:20:29.095Z,7.27
2022-09-18T06:23:30.706Z,7.12
2022-09-18T06:26:32.371Z,7.19
2022-09-18T06:29:33.973Z,7.18
2022-09-18T06:32:36.961Z,7.18
2022-09-18T06:35:38.647Z,7.23
2022-09-18T06:38:40.329Z,7.15
2022-09-18T06:41:41.989Z,7.16
2022-09-18T06:44:43.683Z,7.17
2022-09-18T06:47:46.667Z,7.25
2022-09-18T06:50:51.709Z,7.43
2022-09-18T06:53:53.460Z,7.58
2022-09-18T06:56:55.075Z,7.41
2022-09-18T06:59:56.803Z,7.47
2022-09-18T07:03:00.715Z,7.45
2022-09-18T07:06:02.349Z,7.54
2022-09-18T07:09:04.049Z,7.66
2022-09-18T07:12:06.045Z,7.59
2022-09-18T07:15:07.843Z,7.53
2022-09-18T07:18:10.944Z,7.50
2022-09-18T07:21:12.579Z,7.52
2022-09-18T07:24:14.399Z,7.54
2022-09-18T07:27:18.591Z,7.57
2022-09-18T07:30:20.585Z,7.71
2022-09-18T07:33:23.594Z,7.77
2022-09-18T07:36:25.247Z,7.74
2022-09-18T07:39:26.877Z,7.84
2022-09-18T07:42:28.506Z,7.88
2022-09-18T07:45:30.118Z,7.84
2022-09-18T07:48:33.178Z,7.90
2022-09-18T07:51:34.785Z,7.93
2022-09-18T07:54:36.373Z,7.94
2022-09-18T07:57:37.962Z,7.94
2022-09-18T08:00:39.706Z,7.98
2022-09-18T08:03:42.691Z,8.02
2022-09-18T08:06:44.316Z,8.08
2022-09-18T08:09:45.911Z,8.08
2022-09-18T08:12:47.542Z,8.09
2022-09-18T08:15:49.187Z,8.04
2022-09-18T08:18:52.198Z,8.06
2022-09-18T08:21:53.827Z,8.14
2022-09-18T08:24:55.466Z,8.09
2022-09-18T08:27:58.580Z,8.13
2022-09-18T08:31:18.048Z,8.13
2022-09-18T08:34:21.285Z,8.12
2022-09-18T08:37:22.971Z,8.14
2022-09-18T08:40:30.948Z,8.02
2022-09-18T08:43:41.902Z,8.06
2022-09-18T08:46:48.077Z,8.10
2022-09-18T08:49:53.371Z,8.12
2022-09-18T08:52:58.722Z,8.14
2022-09-18T08:56:02.052Z,8.18
2022-09-18T08:59:05.348Z,8.19
2022-09-18T09:09:35.273Z,8.17
2022-09-18T09:12:43.292Z,8.11
2022-09-18T09:15:48.180Z,8.08
2022-09-18T09:18:57.532Z,8.06
2022-09-18T09:22:03.654Z,8.08
2022-09-18T09:25:13.057Z,8.14
2022-09-18T09:28:16.975Z,8.20
2022-09-18T09:31:22.801Z,8.23
2022-09-18T09:34:31.223Z,8.22
2022-09-18T09:41:33.738Z,8.11
2022-09-18T09:44:38.352Z,8.13
2022-09-18T09:47:45.354Z,8.07
2022-09-18T09:50:53.592Z,8.14
2022-09-18T09:53:55.940Z,8.04
2022-09-18T09:57:02.987Z,8.19
2022-09-18T10:00:06.035Z,8.11
2022-09-18T10:03:22.442Z,8.03
2022-09-18T10:06:31.084Z,8.08
2022-09-18T10:09:38.205Z,8.10
2022-09-18T10:12:47.516Z,8.08
2022-09-18T10:15:50.124Z,8.11
2022-09-18T10:18:51.870Z,8.08
2022-09-18T10:21:54.385Z,8.20
2022-09-18T10:24:58.774Z,8.19
2022-09-18T10:28:01.833Z,8.29
2022-09-18T10:31:04.932Z,8.28
2022-09-18T10:34:26.573Z,8.41
2022-09-18T10:37:39.537Z,8.40
2022-09-18T10:40:41.163Z,8.46
2022-09-18T10:43:52.701Z,8.44
2022-09-18T10:46:55.998Z,8.43
2022-09-18T10:49:59.454Z,8.49
2022-09-18T10:53:15.775Z,8.49
2022-09-18T10:56:18.540Z,8.50
2022-09-18T10:59:34.727Z,8.46
2022-09-18T11:02:39.395Z,8.51
2022-09-18T11:05:48.913Z,8.56
2022-09-18T11:08:51.864Z,8.52
2022-09-18T11:11:53.505Z,8.50
2022-09-18T11:15:00.433Z,8.45
2022-09-18T11:18:03.773Z,8.41
2022-09-18T11:21:06.989Z,8.41
2022-09-18T11:24:16.334Z,8.35
2022-09-18T11:27:19.296Z,8.37
2022-09-18T11:30:23.594Z,8.40
2022-09-18T11:33:27.926Z,8.39
2022-09-18T11:36:31.712Z,8.45
2022-09-18T11:39:35.046Z,8.43
2022-09-18T11:42:41.732Z,8.43
2022-09-18T11:45:51.896Z,8.47
2022-09-18T11:48:59.339Z,8.48
2022-09-18T11:52:04.793Z,8.56
2022-09-18T11:55:12.193Z,8.54
2022-09-18T11:58:15.883Z,8.56
2022-09-18T12:01:24.934Z,8.60
2022-09-18T12:04:33.917Z,8.66
2022-09-18T12:07:37.700Z,8.67
2022-09-18T12:10:51.645Z,8.71
2022-09-18T12:13:58.484Z,8.66
2022-09-18T12:17:06.068Z,8.65
2022-09-18T12:20:10.294Z,8.77
2022-09-18T12:23:13.269Z,8.71
2022-09-18T12:26:18.788Z,8.74
2022-09-18T12:29:28.404Z,8.83
2022-09-18T12:32:54.284Z,8.76
2022-09-18T12:36:04.592Z,8.85
2022-09-18T12:39:15.762Z,8.81
2022-09-18T12:42:21.342Z,8.77
2022-09-18T12:45:43.756Z,8.79
2022-09-18T12:48:56.244Z,8.77
2022-09-18T12:52:06.907Z,8.76
2022-09-18T12:55:20.843Z,8.77
2022-09-18T12:58:49.835Z,8.81
2022-09-18T13:01:54.727Z,8.92
2022-09-18T13:05:01.442Z,8.95
2022-09-18T13:08:07.450Z,8.88
2022-09-18T13:11:13.465Z,8.94
2022-09-18T13:14:19.228Z,9.01
2022-09-18T13:17:25.476Z,8.92
2022-09-18T13:20:30.679Z,8.96
2022-09-18T13:23:36.077Z,9.00
2022-09-18T13:26:38.234Z,9.00
2022-09-18T13:30:03.684Z,8.96
2022-09-18T13:33:05.422Z,9.06
2022-09-18T13:36:07.114Z,8.99
2022-09-18T13:39:16.910Z,8.99
2022-09-18T13:42:27.211Z,9.07
2022-09-18T13:45:37.690Z,9.06
2022-09-18T13:48:42.659Z,9.12
2022-09-18T13:51:44.289Z,9.11
2022-09-18T13:55:00.905Z,9.14
2022-09-18T13:58:21.019Z,9.14
2022-09-18T14:01:55.846Z,9.17
2022-09-18T14:04:59.252Z,9.16
2022-09-18T14:08:03.490Z,9.24
2022-09-18T14:11:15.457Z,9.28
2022-09-18T14:14:21.287Z,9.26
2022-09-18T14:17:23.890Z,9.37
2022-09-18T14:20:25.878Z,9.37
2022-09-18T14:23:46.164Z,9.34
2022-09-18T14:26:59.835Z,9.35
2022-09-18T14:30:03.544Z,9.38
2022-09-18T14:33:15.499Z,9.43
2022-09-18T14:36:17.113Z,9.46
2022-09-18T14:39:22.684Z,9.48
2022-09-18T14:42:32.463Z,9.48
2022-09-18T14:45:34.726Z,9.51
2022-09-18T14:48:37.594Z,9.45
2022-09-18T14:52:02.692Z,9.53
2022-09-18T14:55:09.215Z,9.56
2022-09-18T14:58:14.924Z,9.50
2022-09-18T15:01:18.765Z,9.47
2022-09-18T15:04:22.623Z,9.55
2022-09-18T15:07:24.330Z,9.54
2022-09-18T15:10:26.618Z,9.49
2022-09-18T15:13:32.113Z,9.53
2022-09-18T15:16:33.830Z,9.33
2022-09-18T15:19:35.571Z,9.43
2022-09-18T15:22:37.236Z,9.37
2022-09-18T15:25:39.506Z,9.37
2022-09-18T15:28:44.395Z,9.41
2022-09-18T15:31:46.250Z,9.46
2022-09-18T15:34:49.205Z,9.35
2022-09-18T15:37:51.803Z,9.38
2022-09-18T15:40:53.594Z,9.44
2022-09-18T15:43:56.720Z,9.45
2022-09-18T15:47:18.437Z,9.50
2022-09-18T15:50:34.960Z,9.47
2022-09-18T15:53:36.706Z,9.37
2022-09-18T15:56:40.201Z,9.40
2022-09-18T15:59:43.287Z,9.38
2022-09-18T16:02:50.918Z,9.46
2022-09-18T16:05:53.367Z,9.48
2022-09-18T16:08:56.327Z,9.55
2022-09-18T16:11:57.935Z,9.50
2022-09-18T16:15:01.782Z,9.55
2022-09-18T16:18:05.278Z,9.55
2022-09-18T16:21:06.941Z,9.46
2022-09-18T16:24:18.451Z,9.51
2022-09-18T16:27:20.138Z,9.46
2022-09-18T16:30:23.325Z,9.45
2022-09-18T16:33:26.345Z,9.42
2022-09-18T16:36:29.876Z,9.50
2022-09-18T16:39:31.868Z,9.38
2022-09-18T16:42:33.437Z,9.36
2022-09-18T16:45:36.586Z,9.33
2022-09-18T16:48:38.211Z,9.37
2022-09-18T16:51:39.867Z,9.42
2022-09-18T16:54:41.481Z,9.50
2022-09-18T16:57:43.187Z,9.49
2022-09-18T17:00:46.270Z,9.48
2022-09-18T17:03:47.909Z,9.45
2022-09-18T17:06:49.869Z,9.51
2022-09-18T17:09:51.805Z,9.46
2022-09-18T17:12:53.734Z,9.44
2022-09-18T17:16:01.203Z,9.44
2022-09-18T17:19:04.377Z,9.46
2022-09-18T17:22:06.408Z,9.35
2022-09-18T17:25:08.673Z,9.43
2022-09-18T17:28:10.731Z,9.47
2022-09-18T17:31:16.276Z,9.46
2022-09-18T17:34:18.429Z,9.41
2022-09-18T17:37:20.476Z,9.34
2022-09-18T17:40:22.420Z,9.31
2022-09-18T17:43:24.550Z,9.39
2022-09-18T17:46:27.965Z,9.33
2022-09-18T17:49:31.628Z,9.26
2022-09-18T17:52:34.453Z,9.26
2022-09-18T17:55:36.424Z,9.20
2022-09-18T17:58:38.790Z,9.25
2022-09-18T18:01:42.411Z,9.11
2022-09-18T18:04:44.220Z,9.07
2022-09-18T18:07:45.799Z,9.22
2022-09-18T18:10:47.421Z,9.19
2022-09-18T18:13:50.132Z,9.19
2022-09-18T18:16:53.248Z,9.29
2022-09-18T18:19:55.092Z,9.30
2022-09-18T18:22:56.717Z,9.26
2022-09-18T18:25:59.972Z,9.27
2022-09-18T18:29:01.829Z,9.28
2022-09-18T18:32:05.298Z,9.25
2022-09-18T18:35:07.750Z,9.22
2022-09-18T18:38:09.798Z,9.16
2022-09-18T18:41:13.172Z,9.14
2022-09-18T18:44:15.440Z,9.11
2022-09-18T18:47:18.868Z,9.03
2022-09-18T18:50:21.059Z,9.10
2022-09-18T18:53:23.015Z,9.17
2022-09-18T18:56:24.846Z,9.12
2022-09-18T18:59:26.740Z,9.11
2022-09-18T19:02:30.093Z,9.03
2022-09-18T19:05:31.736Z,9.00
2022-09-18T19:08:33.885Z,9.09
2022-09-18T19:11:36.870Z,9.11
2022-09-18T19:14:38.576Z,9.08
2022-09-18T19:17:41.576Z,9.07
2022-09-18T19:20:43.409Z,9.07
2022-09-18T19:23:48.001Z,9.14
2022-09-18T19:26:49.890Z,9.21
2022-09-18T19:29:51.839Z,9.17
2022-09-18T19:32:55.760Z,9.17
2022-09-18T19:36:02.177Z,9.11
2022-09-18T19:39:04.532Z,9.15
2022-09-18T19:42:08.564Z,9.08
2022-09-18T19:45:11.080Z,9.08
2022-09-18T19:48:18.347Z,9.13
2022-09-18T19:51:20.056Z,9.11
2022-09-18T19:54:21.697Z,9.07
2022-09-18T19:57:24.054Z,9.07
2022-09-18T20:00:26.162Z,9.11
2022-09-18T20:03:29.186Z,8.99
2022-09-18T20:06:30.969Z,9.07
2022-09-18T20:09:32.586Z,9.03
2022-09-18T20:12:35.764Z,9.09
2022-09-18T20:15:37.514Z,8.99
2022-09-18T20:18:40.523Z,8.95
2022-09-18T20:21:42.245Z,8.96
2022-09-18T20:24:43.855Z,8.95
2022-09-18T20:27:45.481Z,8.87
2022-09-18T20:30:47.060Z,8.78
2022-09-18T20:33:52.985Z,8.77
2022-09-18T20:36:54.613Z,8.82
2022-09-18T20:39:56.277Z,8.76
2022-09-18T20:42:57.996Z,8.73
2022-09-18T20:46:00.227Z,8.72
2022-09-18T20:49:03.293Z,8.75
2022-09-18T20:52:05.075Z,8.65
2022-09-18T20:55:07.635Z,8.75
2022-09-18T20:58:09.237Z,8.75
2022-09-18T21:01:12.039Z,8.73
2022-09-18T21:04:16.512Z,8.81
2022-09-18T21:07:18.301Z,8.77
2022-09-18T21:10:19.954Z,8.80
2022-09-18T21:13:21.567Z,8.85
2022-09-18T21:16:24.262Z,8.77
2022-09-18T21:19:27.349Z,8.74
2022-09-18T21:22:29.025Z,8.72
2022-09-18T21:25:30.891Z,8.72
2022-09-18T21:28:32.475Z,8.85
2022-09-18T21:31:34.657Z,8.77
2022-09-18T21:34:37.633Z,8.77
2022-09-18T21:37:39.240Z,8.78
2022-09-18T21:40:40.892Z,8.80
2022-09-18T21:43:42.628Z,8.86
2022-09-18T21:46:44.836Z,8.84
2022-09-18T21:49:47.913Z,8.83
2022-09-18T21:52:49.568Z,8.96
2022-09-18T21:55:51.191Z,8.79
2022-09-18T21:58:53.799Z,8.81
2022-09-18T22:01:55.961Z,8.74
2022-09-18T22:04:59.010Z,8.76
2022-09-18T22:08:00.811Z,8.80
2022-09-18T22:11:02.743Z,8.81
2022-09-18T22:14:06.119Z,8.81
2022-09-18T22:17:08.553Z,8.81
2022-09-18T22:20:11.577Z,8.93
2022-09-18T22:23:13.247Z,8.86
2022-09-18T22:26:14.893Z,8.96
2022-09-18T22:29:17.940Z,8.91
2022-09-18T22:32:19.618Z,8.86
2022-09-18T22:35:22.701Z,8.87
2022-09-18T22:38:24.351Z,8.94
2022-09-18T22:41:25.989Z,8.98
2022-09-18T22:44:27.659Z,8.97
2022-09-18T22:47:29.873Z,9.02
2022-09-18T22:50:32.898Z,8.97
2022-09-18T22:53:35.057Z,9.03
2022-09-18T22:56:37.557Z,8.95
2022-09-18T22:59:39.336Z,9.02
2022-09-18T23:02:41.017Z,9.07
2022-09-18T23:05:44.187Z,9.00
2022-09-18T23:08:46.194Z,9.08
2022-09-18T23:11:48.581Z,9.01
2022-09-18T23:14:50.242Z,8.94
2022-09-18T23:17:51.829Z,9.03
2022-09-18T23:20:58.536Z,9.00
2022-09-18T23:24:01.188Z,9.06
2022-09-18T23:27:02.847Z,9.04
2022-09-18T23:30:04.923Z,9.06
2022-09-18T23:33:06.577Z,8.97
2022-09-18T23:36:11.491Z,8.96
2022-09-18T23:39:14.600Z,8.84
2022-09-18T23:42:16.239Z,8.81
2022-09-18T23:45:17.919Z,8.83
2022-09-18T23:48:19.561Z,8.85
2022-09-18T23:51:23.417Z,8.79
2022-09-18T23:54:26.290Z,8.75
2022-09-18T23:57:28.264Z,8.66
